Terminal Aerodrome Forecast
Issued by NWS Billings, MT

Home | Current Version | Previous Version | Text Only | Print | Product List | Glossary On
Versions: 1 2 3 4 5 6 7 8 9 10 11 12 13 14 15 16 17 18 19 20 21
000
FTUS45 KBYZ 291133
TAFSHR
TAF
KSHR 291133Z 2912/3012 31014KT 1SM -SN VV012
     FM291400 31010KT 3SM -SN BKN025
     FM291700 33010KT P6SM SCT008 BKN030
     FM292300 33008KT P6SM BKN050=

USA.gov is the U.S. government's official web portal to all federal, state and local government web resources and services.